Time;durP1;ratioP1;P1;durP2;ratioP2;P2;SDS_P1;SDS_P2;PMS_P1;PMS_P2;Temp;Humidity;BMP_temperature;BMP_pressure;BME280_temperature;BME280_humidity;BME280_pressure;Samples;Min_cycle;Max_cycle;Signal;HPM_P1;HPM_P2
2023/04/18 00:00:29;;;;;;;24.23;11.98;;;;;;;-143.84;93.26;43965.78;4971534;28;20447;-64
2023/04/18 00:02:57;;;;;;;21.00;10.33;;;;;;;-143.84;93.22;43960.06;4971484;28;20649;-64
2023/04/18 00:05:24;;;;;;;31.23;11.53;;;;;;;-143.84;93.07;43950.53;4971592;28;20521;-64
2023/04/18 00:07:53;;;;;;;23.30;11.87;;;;;;;-143.84;92.96;43948.63;4971366;28;20445;-64
2023/04/18 00:10:20;;;;;;;25.35;10.90;;;;;;;-143.84;92.85;43937.22;4971415;28;20441;-64
2023/04/18 00:12:47;;;;;;;31.58;11.40;;;;;;;-143.84;92.94;43948.63;4971499;28;20210;-64
2023/04/18 00:15:14;;;;;;;21.57;12.33;;;;;;;-143.84;92.43;43920.09;4971344;28;20297;-64
2023/04/18 00:17:42;;;;;;;17.37;11.03;;;;;;;-143.84;92.17;43918.19;4970871;28;20493;-64
2023/04/18 00:20:11;;;;;;;25.43;11.87;;;;;;;-143.84;91.80;43910.56;4971514;28;20845;-64
2023/04/18 00:22:41;;;;;;;31.17;12.07;;;;;;;-143.84;91.91;43901.06;4971467;28;20545;-64
2023/04/18 00:25:10;;;;;;;17.77;11.10;;;;;;;-143.84;92.20;43927.69;4971483;28;20500;-65
2023/04/18 00:27:38;;;;;;;16.70;10.43;;;;;;;-143.84;92.47;43925.78;4971084;28;20442;-65
2023/04/18 00:30:06;;;;;;;20.13;10.80;;;;;;;-143.84;92.57;43927.69;4971005;28;20445;-64
2023/04/18 00:32:33;;;;;;;28.92;13.00;;;;;;;-143.84;92.58;43929.59;4970949;28;20452;-65
2023/04/18 00:35:00;;;;;;;24.83;11.13;;;;;;;-143.84;92.73;43933.41;4971045;28;20206;-64
2023/04/18 00:37:28;;;;;;;28.77;12.03;;;;;;;-143.84;92.68;43944.84;4970948;28;20657;-65
2023/04/18 00:39:55;;;;;;;24.97;13.90;;;;;;;-143.84;92.98;43961.97;4971149;28;20429;-64
2023/04/18 00:42:24;;;;;;;28.93;13.23;;;;;;;-143.84;93.09;43963.88;4970747;28;20450;-64
2023/04/18 00:44:51;;;;;;;18.80;11.57;;;;;;;-143.84;93.14;43948.63;4970990;28;20536;-64
2023/04/18 00:47:18;;;;;;;27.60;12.23;;;;;;;-143.84;93.58;43971.47;4970784;28;20505;-64
2023/04/18 00:49:47;;;;;;;21.00;11.57;;;;;;;-143.84;93.44;43952.44;4970816;28;20875;-64
2023/04/18 00:52:14;;;;;;;24.50;11.40;;;;;;;-143.84;93.72;43969.59;4971012;28;20445;-64
2023/04/18 00:54:42;;;;;;;27.00;12.27;;;;;;;-143.84;93.88;43975.28;4970672;28;20865;-64
2023/04/18 00:57:09;;;;;;;29.30;12.97;;;;;;;-143.84;93.94;43986.72;4970213;28;20481;-64
2023/04/18 00:59:39;;;;;;;27.33;12.30;;;;;;;-143.84;94.00;44000.03;4970208;28;20496;-64
2023/04/18 01:02:06;;;;;;;28.35;11.55;;;;;;;-143.84;94.12;43977.19;4970746;28;20488;-64
2023/04/18 01:04:33;;;;;;;24.43;12.00;;;;;;;-143.84;93.82;43958.16;4970511;28;20202;-64
2023/04/18 01:07:02;;;;;;;23.90;13.03;;;;;;;-143.84;93.53;43971.47;4970582;28;20446;-64
2023/04/18 01:09:29;;;;;;;15.70;10.83;;;;;;;-143.84;93.38;43967.69;4970540;28;20445;-64
2023/04/18 01:11:57;;;;;;;21.90;10.77;;;;;;;-143.84;93.27;43952.44;4970664;28;20446;-64
2023/04/18 01:14:24;;;;;;;25.17;12.47;;;;;;;-143.84;93.27;43948.63;4970224;28;20473;-64
2023/04/18 01:16:52;;;;;;;26.00;12.33;;;;;;;-143.84;93.29;43969.59;4970284;28;20512;-64
2023/04/18 01:19:20;;;;;;;25.20;11.50;;;;;;;-143.84;93.59;43958.16;4970721;28;20499;-64
2023/04/18 01:21:47;;;;;;;30.37;11.60;;;;;;;-143.84;93.80;43981.00;4970255;28;21018;-64
2023/04/18 01:24:17;;;;;;;23.60;12.93;;;;;;;-143.84;93.77;43982.91;4970405;28;20541;-65
2023/04/18 01:26:47;;;;;;;25.10;12.53;;;;;;;-143.84;93.92;43984.81;4970371;28;21006;-68
2023/04/18 01:29:14;;;;;;;28.60;14.30;;;;;;;-143.84;94.14;43982.91;4970342;28;20438;-68
2023/04/18 01:31:42;;;;;;;26.73;11.60;;;;;;;-143.84;93.84;43965.78;4970264;28;20199;-68
2023/04/18 01:34:09;;;;;;;23.13;11.40;;;;;;;-143.84;94.14;44005.75;4970231;28;20441;-68
2023/04/18 01:36:37;;;;;;;17.05;11.77;;;;;;;-143.84;94.56;43992.41;4970200;28;20449;-68
2023/04/18 01:39:05;;;;;;;20.90;12.00;;;;;;;-143.84;94.59;44000.03;4970350;28;20683;-68
2023/04/18 01:41:34;;;;;;;19.57;11.43;;;;;;;-143.84;94.73;44003.84;4970065;28;20205;-68
2023/04/18 01:44:01;;;;;;;22.80;13.20;;;;;;;-143.84;94.93;44009.56;4970332;28;20544;-68
2023/04/18 01:46:28;;;;;;;22.33;12.97;;;;;;;-143.84;95.28;44015.25;4969854;28;20530;-68
2023/04/18 01:48:56;;;;;;;25.63;13.00;;;;;;;-143.84;95.58;44034.31;4972603;28;20496;-68
2023/04/18 01:51:23;;;;;;;22.20;14.40;;;;;;;-143.84;95.68;44043.81;4974386;28;20476;-68
2023/04/18 01:53:50;;;;;;;17.60;12.03;;;;;;;-143.84;95.70;44040.00;4973563;28;20450;-68
2023/04/18 01:56:17;;;;;;;23.80;14.23;;;;;;;-143.84;95.93;44045.72;4974112;28;20930;-68
2023/04/18 01:58:46;;;;;;;19.03;12.30;;;;;;;-143.84;95.81;44040.00;4974127;28;21022;-68
2023/04/18 02:01:13;;;;;;;21.45;11.77;;;;;;;-143.84;96.00;44051.44;4974071;28;20465;-68
2023/04/18 02:03:40;;;;;;;33.87;14.17;;;;;;;-143.84;95.64;44057.16;4974051;28;20206;-68
2023/04/18 02:06:08;;;;;;;18.43;13.47;;;;;;;-143.84;95.56;44038.09;4974023;28;20508;-67
2023/04/18 02:08:35;;;;;;;32.63;14.30;;;;;;;-143.84;95.97;44043.81;4973866;28;20444;-68
2023/04/18 02:11:03;;;;;;;24.10;14.37;;;;;;;-143.84;95.99;44055.25;4973873;28;20433;-68
2023/04/18 02:13:30;;;;;;;24.37;14.17;;;;;;;-143.84;96.13;44066.66;4973956;28;20445;-67
2023/04/18 02:15:58;;;;;;;22.88;13.45;;;;;;;-143.84;96.33;44059.03;4973714;28;20457;-67
2023/04/18 02:18:26;;;;;;;21.17;11.83;;;;;;;-143.84;96.16;44057.16;4973391;28;20262;-67
2023/04/18 02:20:53;;;;;;;25.67;15.00;;;;;;;-143.84;96.33;44057.16;4973502;28;20445;-67
2023/04/18 02:23:20;;;;;;;21.40;13.23;;;;;;;-143.84;96.08;44062.84;4973739;28;20500;-67
2023/04/18 02:25:47;;;;;;;26.30;14.23;;;;;;;-143.84;96.55;44072.38;4973347;28;20518;-67
2023/04/18 02:28:14;;;;;;;34.70;15.33;;;;;;;-143.84;96.26;44066.66;4973493;28;20434;-67
2023/04/18 02:30:41;;;;;;;27.50;14.97;;;;;;;-143.84;96.19;44064.75;4973467;28;20867;-68
2023/04/18 02:33:10;;;;;;;25.63;14.37;;;;;;;-143.84;96.44;44062.84;4973481;28;20846;-68
2023/04/18 02:35:38;;;;;;;26.70;15.47;;;;;;;-143.84;96.21;44068.56;4973294;28;21389;-68
2023/04/18 02:38:05;;;;;;;27.50;15.23;;;;;;;-143.84;96.10;44053.34;4973583;28;20489;-68
2023/04/18 02:40:32;;;;;;;16.50;14.03;;;;;;;-143.84;95.92;44047.63;4973273;28;21023;-68
2023/04/18 02:43:00;;;;;;;21.97;14.73;;;;;;;-143.84;96.01;44053.34;4973336;28;20448;-68
2023/04/18 02:45:28;;;;;;;41.00;15.93;;;;;;;-143.84;96.38;44059.03;4973080;28;20554;-68
2023/04/18 02:47:55;;;;;;;31.58;15.25;;;;;;;-143.84;96.58;44074.28;4973114;28;20457;-68
2023/04/18 02:50:23;;;;;;;41.35;17.10;;;;;;;-143.84;96.08;44078.09;4972987;28;20258;-68
2023/04/18 02:52:51;;;;;;;23.30;14.60;;;;;;;-143.84;96.16;44074.28;4972984;28;20205;-68
2023/04/18 02:55:18;;;;;;;36.72;15.63;;;;;;;-143.84;96.19;44055.25;4972669;28;20449;-68
2023/04/18 02:57:45;;;;;;;22.93;15.17;;;;;;;-143.84;95.88;44051.44;4973965;28;20253;-68
2023/04/18 03:00:13;;;;;;;24.50;15.77;;;;;;;-143.84;95.88;44059.03;4973172;28;20448;-68
2023/04/18 03:02:41;;;;;;;28.23;14.90;;;;;;;-143.84;96.05;44059.03;4973142;28;20441;-68
2023/04/18 03:05:08;;;;;;;29.60;13.80;;;;;;;-143.84;95.65;44047.63;4973338;28;20939;-68
2023/04/18 03:07:37;;;;;;;27.77;15.00;;;;;;;-143.84;95.60;44053.34;4973320;28;20442;-69
2023/04/18 03:10:04;;;;;;;35.03;14.93;;;;;;;-143.84;95.46;44041.91;4973023;28;20445;-69
2023/04/18 03:12:31;;;;;;;25.17;14.90;;;;;;;-143.84;95.53;44041.91;4973371;28;20469;-68
2023/04/18 03:14:58;;;;;;;34.33;15.00;;;;;;;-143.84;95.82;44047.63;4973811;28;20508;-68
2023/04/18 03:17:26;;;;;;;19.17;13.60;;;;;;;-143.84;96.05;44043.81;4973335;28;20485;-69
2023/04/18 03:19:53;;;;;;;27.67;14.23;;;;;;;-143.84;96.35;44068.56;4973267;28;20443;-68
2023/04/18 03:22:20;;;;;;;25.93;15.37;;;;;;;-143.84;96.69;44070.47;4974037;28;20514;-68
2023/04/18 03:24:49;;;;;;;16.93;13.33;;;;;;;-143.84;96.99;44089.50;4972969;28;20945;-68
2023/04/18 03:27:16;;;;;;;31.00;14.40;;;;;;;-143.84;97.15;44097.13;4972433;28;20439;-69
2023/04/18 03:29:43;;;;;;;24.70;15.67;;;;;;;-143.84;97.11;44093.31;4972349;28;20473;-68
2023/04/18 03:32:11;;;;;;;25.40;14.00;;;;;;;-143.84;97.25;44100.94;4972273;28;20449;-69
2023/04/18 03:34:38;;;;;;;26.23;14.87;;;;;;;-143.84;97.23;44097.13;4972231;28;20453;-68
2023/04/18 03:37:05;;;;;;;25.33;15.30;;;;;;;-143.84;97.40;44112.34;4972382;28;20444;-69
2023/04/18 03:39:33;;;;;;;29.73;15.60;;;;;;;-143.84;97.35;44100.94;4972257;28;20478;-68
2023/04/18 03:42:01;;;;;;;18.77;13.77;;;;;;;-143.84;96.95;44085.69;4972501;28;20519;-69
2023/04/18 03:44:28;;;;;;;30.17;15.97;;;;;;;-143.84;96.65;44083.78;4971710;28;20463;-69
2023/04/18 03:46:56;;;;;;;23.13;15.70;;;;;;;-143.84;96.34;44068.56;4970900;28;20438;-69
2023/04/18 03:49:23;;;;;;;25.73;16.03;;;;;;;-143.84;96.53;44068.56;4970753;28;20984;-70
2023/04/18 03:51:50;;;;;;;26.53;15.43;;;;;;;-143.84;96.61;44080.00;4973426;28;20944;-68
2023/04/18 03:54:18;;;;;;;30.80;14.20;;;;;;;-143.84;96.09;44072.38;4973478;28;20540;-67
2023/04/18 03:56:45;;;;;;;21.57;13.30;;;;;;;-143.84;95.97;44059.03;4972613;28;20444;-68
2023/04/18 03:59:14;;;;;;;33.67;15.57;;;;;;;-143.84;96.19;44074.28;4973153;28;20481;-67
2023/04/18 04:01:41;;;;;;;36.23;14.33;;;;;;;-143.84;96.05;44062.84;4973355;28;20445;-68
2023/04/18 04:04:10;;;;;;;28.13;14.10;;;;;;;-143.84;95.65;44055.25;4971798;28;20858;-67
2023/04/18 04:06:37;;;;;;;25.33;14.53;;;;;;;-143.84;95.42;44043.81;4971951;28;20445;-67
2023/04/18 04:09:05;;;;;;;24.30;15.30;;;;;;;-143.84;94.61;44015.25;4971781;28;20449;-67
2023/04/18 04:11:32;;;;;;;26.37;14.00;;;;;;;-143.84;94.50;44013.38;4971904;28;20445;-67
2023/04/18 04:13:59;;;;;;;32.63;15.33;;;;;;;-143.84;94.75;44032.41;4973321;28;20446;-67
2023/04/18 04:16:28;;;;;;;37.43;14.53;;;;;;;-143.84;95.21;44026.69;4973216;28;20461;-67
2023/04/18 04:18:55;;;;;;;32.37;16.87;;;;;;;-143.84;94.71;44009.56;4973400;28;20827;-67
2023/04/18 04:21:22;;;;;;;26.70;13.83;;;;;;;-143.84;94.69;44017.16;4991640;28;21272;-67
2023/04/18 04:23:49;;;;;;;23.35;14.55;;;;;;;-143.84;95.02;44032.41;4993333;28;20435;-67
2023/04/18 04:26:17;;;;;;;34.63;14.27;;;;;;;-143.84;94.42;44000.03;4993107;28;20194;-67
2023/04/18 04:28:45;;;;;;;26.90;14.70;;;;;;;-143.84;93.63;43984.81;4991628;28;20502;-67
2023/04/18 04:31:12;;;;;;;35.40;15.10;;;;;;;-143.84;93.42;43950.53;4990942;28;20437;-67
2023/04/18 04:33:42;;;;;;;37.23;16.33;;;;;;;-143.84;93.76;43986.72;4990795;28;20444;-67
2023/04/18 04:36:13;;;;;;;27.60;14.87;;;;;;;-143.84;94.05;44003.84;4990449;28;21132;-67
2023/04/18 04:38:40;;;;;;;24.97;12.63;;;;;;;-143.84;94.06;44000.03;4990359;28;20997;-68
2023/04/18 04:41:08;;;;;;;24.53;13.67;;;;;;;-143.84;94.16;43996.22;4990473;28;20452;-68
2023/04/18 04:43:35;;;;;;;26.13;13.55;;;;;;;-143.84;94.15;43990.53;4990277;28;20447;-68
2023/04/18 04:46:03;;;;;;;20.77;13.82;;;;;;;-143.84;93.76;44000.03;4990107;28;20744;-68
2023/04/18 04:48:30;;;;;;;25.67;13.40;;;;;;;-143.84;93.58;43969.59;4974730;28;20210;-68
2023/04/18 04:51:00;;;;;;;27.85;13.45;;;;;;;-143.84;93.31;43954.34;4971229;28;20450;-68
2023/04/18 04:53:30;;;;;;;22.00;13.37;;;;;;;-143.84;93.31;43967.69;4971002;28;20209;-68
2023/04/18 04:55:57;;;;;;;27.23;12.80;;;;;;;-143.84;93.29;43960.06;4970599;28;20473;-68
2023/04/18 04:58:24;;;;;;;28.03;12.60;;;;;;;-143.84;93.25;43960.06;4971306;28;20477;-68
2023/04/18 05:00:52;;;;;;;20.53;12.70;;;;;;;-143.84;93.44;43971.47;4971534;28;20449;-68
2023/04/18 05:03:19;;;;;;;20.23;13.10;;;;;;;-143.84;93.62;43969.59;4971123;28;21304;-68
2023/04/18 05:05:47;;;;;;;20.17;12.10;;;;;;;-143.84;93.66;43979.09;4971354;28;21349;-68
2023/04/18 05:08:15;;;;;;;26.13;12.83;;;;;;;-143.84;93.91;43984.81;4971683;28;20443;-68
2023/04/18 05:10:44;;;;;;;20.63;12.63;;;;;;;-143.84;94.21;44003.84;4970321;28;20499;-68
2023/04/18 05:13:11;;;;;;;31.27;13.30;;;;;;;-143.84;94.30;43996.22;4971093;28;20538;-68
2023/04/18 05:15:40;;;;;;;29.07;13.70;;;;;;;-143.84;94.24;43994.31;4971303;28;20473;-68
2023/04/18 05:18:07;;;;;;;20.63;10.97;;;;;;;-143.84;94.53;43996.22;4970880;28;20485;-68
2023/04/18 05:20:34;;;;;;;21.05;13.35;;;;;;;-143.84;94.71;44003.84;4971453;28;20442;-68
2023/04/18 05:23:01;;;;;;;26.80;13.47;;;;;;;-143.84;94.62;44003.84;4971478;28;20210;-68
2023/04/18 05:25:31;;;;;;;15.70;10.77;;;;;;;-143.84;94.37;44000.03;4971227;28;20499;-68
2023/04/18 05:28:00;;;;;;;22.57;11.97;;;;;;;-143.84;94.39;44005.75;4971118;28;20508;-68
2023/04/18 05:30:27;;;;;;;27.40;12.50;;;;;;;-143.84;94.79;44019.06;4971043;28;20434;-68
2023/04/18 05:32:54;;;;;;;28.65;12.48;;;;;;;-143.84;94.71;44019.06;4971024;28;20440;-68
2023/04/18 05:35:21;;;;;;;21.73;13.67;;;;;;;-143.84;94.79;44007.66;4970881;28;20718;-68
2023/04/18 05:37:48;;;;;;;18.80;11.73;;;;;;;-143.84;94.81;44022.88;4970837;28;20443;-68
2023/04/18 05:40:15;;;;;;;22.20;13.53;;;;;;;-143.84;94.91;44007.66;4971199;28;20222;-68
2023/04/18 05:42:44;;;;;;;28.67;13.63;;;;;;;-143.84;94.71;44022.88;4970919;28;20500;-68
2023/04/18 05:45:12;;;;;;;25.13;12.67;;;;;;;-143.84;94.56;44011.47;4970768;28;20199;-68
2023/04/18 05:47:39;;;;;;;18.30;12.13;;;;;;;-143.84;93.67;43965.78;4970885;28;20454;-68
2023/04/18 05:50:07;;;;;;;17.63;11.23;;;;;;;-143.84;93.46;43975.28;4971051;28;20489;-68
2023/04/18 05:52:35;;;;;;;17.73;11.70;;;;;;;-143.84;93.64;43994.31;4971277;28;20515;-68
2023/04/18 05:55:02;;;;;;;29.37;13.00;;;;;;;-143.84;93.79;43990.53;4971322;28;20451;-68
2023/04/18 05:57:29;;;;;;;19.53;11.77;;;;;;;-143.84;94.05;43986.72;4970387;28;20436;-68
2023/04/18 05:59:58;;;;;;;19.60;12.53;;;;;;;-143.84;94.28;44005.75;4969751;28;20590;-68
2023/04/18 06:02:25;;;;;;;16.40;11.95;;;;;;;-143.84;93.72;43988.63;4970278;28;20504;-68
2023/04/18 06:04:52;;;;;;;19.10;11.90;;;;;;;-143.84;93.85;43977.19;4970941;28;20261;-68
2023/04/18 06:07:20;;;;;;;17.73;11.93;;;;;;;-143.84;93.16;43969.59;4971606;28;21093;-68
2023/04/18 06:09:48;;;;;;;17.00;12.23;;;;;;;-143.84;93.33;43961.97;4972346;28;20446;-68
2023/04/18 06:12:15;;;;;;;18.63;11.40;;;;;;;-143.84;93.21;43982.91;4971956;28;20525;-68
2023/04/18 06:14:42;;;;;;;21.37;11.80;;;;;;;-143.84;92.25;43902.97;4972073;28;20512;-68
2023/04/18 06:17:12;;;;;;;20.40;11.00;;;;;;;-143.84;91.90;43918.19;4971196;28;20496;-68
2023/04/18 06:19:39;;;;;;;15.67;10.07;;;;;;;-143.84;92.08;43929.59;4971474;28;20496;-68
2023/04/18 06:22:07;;;;;;;21.57;12.30;;;;;;;-143.84;92.29;43942.94;4971478;28;20846;-68
2023/04/18 06:24:34;;;;;;;18.15;11.00;;;;;;;-143.84;91.76;43906.75;4970303;28;20486;-68
2023/04/18 06:27:01;;;;;;;19.20;10.82;;;;;;;-143.84;91.13;43882.00;4970757;28;20191;-68
2023/04/18 06:29:31;;;;;;;19.33;10.90;;;;;;;-143.84;91.16;43897.25;4971208;28;20214;-68
2023/04/18 06:31:59;;;;;;;15.20;10.70;;;;;;;-143.84;91.06;43880.13;4971416;28;20496;-68
2023/04/18 06:34:27;;;;;;;16.33;11.10;;;;;;;-143.84;91.26;43908.66;4973106;28;20449;-68
2023/04/18 06:36:54;;;;;;;14.43;9.57;;;;;;;-143.84;90.83;43904.84;4974597;28;20441;-68
2023/04/18 06:39:21;;;;;;;14.07;10.23;;;;;;;-143.84;90.49;43883.91;4974106;28;20269;-68
2023/04/18 06:41:49;;;;;;;15.33;10.93;;;;;;;-143.84;91.17;43902.97;4974799;28;20508;-69
2023/04/18 06:44:16;;;;;;;22.47;10.10;;;;;;;-143.84;91.06;43883.91;4975597;28;20446;-68
2023/04/18 06:46:43;;;;;;;16.23;10.17;;;;;;;-143.84;90.47;43893.44;4976181;28;20434;-68
2023/04/18 06:49:10;;;;;;;13.63;9.97;;;;;;;-143.84;89.87;43876.31;4975578;28;20492;-68
2023/04/18 06:51:39;;;;;;;18.08;10.23;;;;;;;-143.84;88.97;43815.41;4974045;28;20442;-68
2023/04/18 06:54:06;;;;;;;12.73;10.00;;;;;;;-143.84;88.99;43857.28;4975725;28;20269;-68
2023/04/18 06:56:33;;;;;;;17.33;8.70;;;;;;;-143.84;89.61;43862.97;4975488;28;20446;-68
2023/04/18 06:59:00;;;;;;;17.03;10.23;;;;;;;-143.84;89.34;43821.09;4975668;28;20571;-68
2023/04/18 07:01:27;;;;;;;17.90;10.57;;;;;;;-143.84;89.06;43847.75;4975500;28;20430;-68
2023/04/18 07:03:55;;;;;;;13.10;8.80;;;;;;;-143.84;88.91;43830.63;4974896;28;20508;-68
2023/04/18 07:06:22;;;;;;;18.83;9.38;;;;;;;-143.84;87.44;43935.31;4974238;28;20511;-68
2023/04/18 07:08:50;;;;;;;14.43;8.32;;;;;;;-143.84;87.19;44036.22;4974639;28;20257;-68
2023/04/18 07:11:17;;;;;;;16.20;9.43;;;;;;;-143.84;86.98;44032.41;4974325;28;20191;-68
2023/04/18 07:13:46;;;;;;;13.80;8.27;;;;;;;-143.84;87.36;43937.22;4974123;28;20438;-68
2023/04/18 07:16:13;;;;;;;11.13;8.90;;;;;;;-143.84;87.16;44003.84;4974167;28;20457;-68
2023/04/18 07:18:40;;;;;;;13.80;9.20;;;;;;;-143.84;87.73;43885.81;4974349;28;20262;-68
2023/04/18 07:21:07;;;;;;;15.87;9.10;;;;;;;-143.84;86.66;44005.75;4974582;28;20435;-68
2023/04/18 07:23:35;;;;;;;9.93;8.50;;;;;;;-143.84;85.80;44260.84;4974540;28;20469;-68
2023/04/18 07:26:04;;;;;;;18.20;9.37;;;;;;;-143.84;84.67;44559.72;4974351;28;20438;-68
2023/04/18 07:28:32;;;;;;;13.00;8.53;;;;;;;-143.84;83.78;44774.88;4974490;28;20442;-68
2023/04/18 07:31:00;;;;;;;12.40;8.37;;;;;;;-143.84;83.74;44742.50;4973860;28;20437;-68
2023/04/18 07:33:30;;;;;;;18.90;9.83;;;;;;;-143.84;82.89;44873.88;4973365;28;20437;-68
2023/04/18 07:35:57;;;;;;;25.73;9.00;;;;;;;-143.84;83.05;44862.47;4972852;28;21250;-68
2023/04/18 07:38:24;;;;;;;9.25;7.45;;;;;;;-143.84;82.52;44940.53;4973483;28;20504;-68
2023/04/18 07:40:57;;;;;;;12.53;7.37;;;;;;;-143.84;81.44;45016.69;4973808;28;20222;-68
2023/04/18 07:43:26;;;;;;;13.13;8.40;;;;;;;-143.84;80.28;45024.31;4974494;28;20432;-68
2023/04/18 07:45:53;;;;;;;12.30;8.87;;;;;;;-143.84;79.61;45098.56;4973031;28;20512;-68
2023/04/18 07:48:21;;;;;;;18.20;8.20;;;;;;;-143.84;79.53;45071.91;4973968;28;20891;-68
2023/04/18 07:50:49;;;;;;;13.27;7.50;;;;;;;-143.84;79.56;45085.25;4974271;28;20533;-68
2023/04/18 07:53:16;;;;;;;13.97;8.20;;;;;;;-143.84;79.45;45087.16;4974236;28;20438;-68
2023/04/18 07:55:43;;;;;;;12.53;7.53;;;;;;;-143.84;80.10;45073.81;4974025;28;20438;-68
2023/04/18 07:58:10;;;;;;;30.13;8.13;;;;;;;-143.84;80.00;45070.00;4973956;28;20439;-68
2023/04/18 08:00:41;;;;;;;14.47;8.27;;;;;;;-143.84;80.52;45018.59;4974266;28;20469;-68
2023/04/18 08:03:10;;;;;;;15.43;8.20;;;;;;;-143.84;81.05;45041.44;4974029;28;20449;-68
2023/04/18 08:05:38;;;;;;;11.63;8.50;;;;;;;-143.84;80.98;45010.97;4973258;28;20453;-68
2023/04/18 08:08:06;;;;;;;13.85;8.45;;;;;;;-143.84;81.01;45033.84;4971464;28;20892;-68
2023/04/18 08:10:33;;;;;;;13.20;9.00;;;;;;;-143.84;81.16;45003.38;4971556;28;20196;-68
2023/04/18 08:13:01;;;;;;;12.30;7.60;;;;;;;-143.84;81.18;45009.09;4972567;28;20793;-68
2023/04/18 08:15:31;;;;;;;13.80;8.33;;;;;;;-143.84;80.93;45039.53;4972176;28;20444;-68
2023/04/18 08:18:00;;;;;;;10.47;8.40;;;;;;;-143.84;81.11;45024.31;4971336;28;20482;-68
2023/04/18 08:20:27;;;;;;;19.27;8.30;;;;;;;-143.84;81.45;44990.03;4971929;28;20535;-68
2023/04/18 08:22:54;;;;;;;13.07;7.63;;;;;;;-143.84;81.16;45033.84;4971992;28;20492;-68
2023/04/18 08:25:21;;;;;;;11.33;7.80;;;;;;;-143.84;80.50;45062.41;4972547;28;21025;-68
2023/04/18 08:27:49;;;;;;;13.13;7.57;;;;;;;-143.84;80.76;45012.88;4971859;28;20493;-68
2023/04/18 08:30:16;;;;;;;13.63;8.20;;;;;;;-143.84;80.90;44999.56;4972044;28;20439;-68
2023/04/18 08:32:43;;;;;;;10.90;8.80;;;;;;;-143.84;81.30;45005.28;4971434;28;20432;-68
2023/04/18 08:35:11;;;;;;;16.80;8.50;;;;;;;-143.84;81.66;45012.88;4971275;28;20824;-68
2023/04/18 08:37:39;;;;;;;18.80;8.50;;;;;;;-143.84;81.13;45045.25;4971173;28;20454;-68
2023/04/18 08:40:07;;;;;;;22.77;9.60;;;;;;;-143.84;82.24;44967.19;4971008;28;20473;-68
2023/04/18 08:42:36;;;;;;;13.10;8.60;;;;;;;-143.84;82.32;44955.75;4971314;28;20703;-68
2023/04/18 08:45:04;;;;;;;13.67;7.73;;;;;;;-143.84;82.66;44896.75;4970996;28;20712;-68
2023/04/18 08:47:31;;;;;;;19.87;9.27;;;;;;;-143.84;82.38;44896.75;4971371;28;20838;-68
2023/04/18 08:49:58;;;;;;;15.93;9.75;;;;;;;-143.84;82.09;44942.44;4972259;28;20437;-68
2023/04/18 08:52:29;;;;;;;15.13;9.70;;;;;;;-143.84;81.54;44974.81;4972890;28;20288;-68
2023/04/18 08:54:57;;;;;;;13.82;7.93;;;;;;;-143.84;82.04;44990.03;4972516;28;20947;-68
2023/04/18 08:57:26;;;;;;;24.83;10.00;;;;;;;-143.84;82.00;44976.72;4972260;28;20294;-68
2023/04/18 08:59:54;;;;;;;14.93;8.40;;;;;;;-143.84;81.55;44988.13;4971921;28;20472;-68
2023/04/18 09:02:22;;;;;;;18.47;8.60;;;;;;;-143.84;81.86;44942.44;4971865;28;20209;-68
2023/04/18 09:04:51;;;;;;;17.10;9.37;;;;;;;-143.84;81.64;44980.53;4971460;28;20449;-68
2023/04/18 09:07:19;;;;;;;21.27;8.82;;;;;;;-143.84;81.64;44974.81;4971370;28;20477;-68
2023/04/18 09:09:50;;;;;;;20.03;9.90;;;;;;;-143.84;82.87;44843.44;4971746;28;20199;-68
2023/04/18 09:12:21;;;;;;;15.82;9.35;;;;;;;-143.84;82.64;44885.31;4970014;28;20500;-68
2023/04/18 09:14:50;;;;;;;11.50;7.80;;;;;;;-143.84;81.75;44957.66;4970881;28;20205;-68
2023/04/18 09:17:32;;;;;;;19.93;8.70;;;;;;;-143.84;82.22;44885.31;4971331;28;20489;-68
2023/04/18 09:20:00;;;;;;;13.75;7.70;;;;;;;-143.84;80.46;44990.03;4971212;28;20474;-68
2023/04/18 09:22:46;;;;;;;9.20;7.50;;;;;;;-143.84;78.47;45056.69;4971313;28;20264;-68
2023/04/18 09:25:26;;;;;;;9.37;6.73;;;;;;;-143.84;78.14;45083.34;4970975;28;20453;-68
2023/04/18 09:27:53;;;;;;;20.53;7.83;;;;;;;-143.84;77.94;45087.16;4971263;28;20512;-68
2023/04/18 09:30:31;;;;;;;18.83;7.43;;;;;;;-143.84;76.70;45096.66;4971092;28;20480;-68
2023/04/18 09:33:00;;;;;;;12.63;6.57;;;;;;;-143.84;76.02;45108.09;4971715;28;20438;-68
2023/04/18 09:35:27;;;;;;;7.70;6.40;;;;;;;-143.84;74.53;45125.22;4971585;28;20206;-69
2023/04/18 09:37:55;;;;;;;11.17;5.87;;;;;;;-143.84;71.73;45104.28;4971445;28;20500;-68
2023/04/18 09:40:23;;;;;;;11.82;6.63;;;;;;;-143.84;71.39;45108.09;4970372;28;20494;-68
2023/04/18 09:42:53;;;;;;;11.68;6.03;;;;;;;-143.84;71.40;45129.03;4971488;28;20283;-68
2023/04/18 09:45:20;;;;;;;8.50;5.40;;;;;;;-143.84;71.55;45153.81;4971664;28;20198;-68
2023/04/18 09:47:47;;;;;;;13.00;6.40;;;;;;;-143.84;70.69;45121.44;4970463;28;20438;-68
2023/04/18 09:50:15;;;;;;;11.45;6.15;;;;;;;-143.84;71.50;45115.72;4970562;28;20492;-68
2023/04/18 09:52:44;;;;;;;20.17;6.28;;;;;;;-143.84;72.11;45129.03;4970275;28;20235;-68
2023/04/18 09:55:13;;;;;;;12.10;6.28;;;;;;;-143.84;71.76;45148.09;4970571;28;20841;-68
2023/04/18 09:57:45;;;;;;;16.20;7.43;;;;;;;-143.84;73.20;45134.75;4970582;28;20201;-68
2023/04/18 10:00:22;;;;;;;14.85;6.80;;;;;;;-143.84;71.17;45136.66;4970123;28;20488;-68
2023/04/18 10:02:54;;;;;;;13.47;6.57;;;;;;;-143.84;69.51;45113.81;4969671;28;20213;-68
2023/04/18 10:05:25;;;;;;;30.57;6.10;;;;;;;-143.84;66.43;45132.84;4970424;28;20489;-70
2023/04/18 10:07:53;;;;;;;11.87;5.83;;;;;;;-143.84;67.04;45140.47;4970732;28;20442;-68
2023/04/18 10:10:21;;;;;;;12.57;6.70;;;;;;;-143.84;65.59;45130.94;4973240;28;20951;-68
2023/04/18 10:12:53;;;;;;;9.50;5.20;;;;;;;-143.84;65.89;45106.19;4975297;28;20437;-68
2023/04/18 10:15:22;;;;;;;10.20;6.10;;;;;;;-143.84;63.42;45140.47;4975068;28;20437;-67
2023/04/18 10:17:54;;;;;;;9.30;5.70;;;;;;;-143.84;65.65;45132.84;4974647;28;20485;-68
2023/04/18 10:20:23;;;;;;;13.37;6.10;;;;;;;-143.84;61.18;45142.38;4974684;28;20896;-68
2023/04/18 10:22:51;;;;;;;11.67;5.30;;;;;;;-143.84;62.46;45150.00;4975042;28;20441;-67
2023/04/18 10:25:50;;;;;;;7.33;5.63;;;;;;;-143.84;61.46;45134.75;4974981;28;20801;-67
2023/04/18 10:28:20;;;;;;;8.90;5.03;;;;;;;-143.84;61.27;45132.84;4974971;28;20434;-68
2023/04/18 10:30:53;;;;;;;15.33;5.47;;;;;;;-143.84;63.58;45138.56;4974879;28;20456;-68
2023/04/18 10:33:33;;;;;;;10.43;5.43;;;;;;;-143.84;61.52;45115.72;4974507;28;20928;-68
2023/04/18 10:36:15;;;;;;;8.80;4.83;;;;;;;-143.84;60.89;45081.44;4974162;28;20437;-68
2023/04/18 10:38:47;;;;;;;15.60;5.73;;;;;;;-143.84;60.56;45125.22;4974089;28;20421;-68
2023/04/18 10:41:23;;;;;;;10.97;5.87;;;;;;;-143.84;62.59;45123.34;4974490;28;20847;-68
2023/04/18 10:44:23;;;;;;;12.97;5.40;;;;;;;-143.84;63.68;45104.28;4974172;28;20437;-68
2023/04/18 10:47:22;;;;;;;9.10;4.43;;;;;;;-143.84;60.04;45138.56;4971834;28;20543;-68
2023/04/18 10:49:59;;;;;;;8.13;4.73;;;;;;;-143.84;58.38;45090.97;4974060;28;20256;-68
2023/04/18 10:52:27;;;;;;;10.70;4.87;;;;;;;-143.84;59.33;45119.53;4974171;28;20442;-68
2023/04/18 10:55:07;;;;;;;19.53;5.00;;;;;;;-143.84;58.69;45108.09;4974485;28;20835;-68
2023/04/18 10:57:41;;;;;;;14.00;4.67;;;;;;;-143.84;58.46;45125.22;4973902;28;20441;-68
2023/04/18 11:00:11;;;;;;;13.17;4.90;;;;;;;-143.84;56.86;45102.38;4973885;28;20496;-68
2023/04/18 11:02:41;;;;;;;9.80;4.57;;;;;;;-143.84;56.90;45092.88;4973799;28;20446;-68
2023/04/18 11:05:08;;;;;;;11.43;5.13;;;;;;;-143.84;57.13;45117.63;4974145;28;20498;-68
2023/04/18 11:07:37;;;;;;;13.10;4.40;;;;;;;-143.84;57.47;45129.03;4973337;28;20451;-68
2023/04/18 11:10:06;;;;;;;28.77;5.53;;;;;;;-143.84;58.42;45089.06;4972972;28;20455;-68